Terminal Aerodrome Forecast
Issued by NWS Charleston, WV

Home | Current Version | Previous Version | Text Only | Print | Product List | Glossary On
Versions: 1 2 3 4 5 6 7 8 9 10 11 12 13 14 15 16 17 18 19 20 21 22 23 24
000
FTUS41 KRLX 010200 AAA
TAFPKB
TAF AMD
KPKB 010255Z 0103/0124 00000KT 4SM -RA BR FEW009 BKN026 OVC035
     FM010500 34005KT 3SM -SHRA BR OVC014
     FM010600 34006KT 2SM -SHRA BR OVC009
     FM010800 36007G13KT 5SM -SHRA BR OVC008
     FM011600 36009G15KT P6SM OVC014
     FM012000 34012G19KT P6SM BKN025=

USA.gov is the U.S. government's official web portal to all federal, state and local government web resources and services.